createdAt,value
2022-09-11T00:00:23.690Z,8.43
2022-09-11T00:05:25.938Z,8.98
2022-09-11T00:10:28.113Z,9.20
2022-09-11T00:15:30.183Z,7.75
2022-09-11T00:20:33.209Z,8.52
2022-09-11T00:25:35.922Z,8.05
2022-09-11T00:30:38.026Z,8.57
2022-09-11T00:35:41.354Z,8.68
2022-09-11T00:40:47.513Z,10.05
2022-09-11T00:45:57.431Z,10.10
2022-09-11T00:51:05.869Z,9.90
2022-09-11T00:56:09.820Z,9.88
2022-09-11T01:01:13.198Z,9.98
2022-09-11T01:06:15.978Z,10.35
2022-09-11T01:11:20.928Z,10.40
2022-09-11T01:16:43.615Z,11.40
2022-09-11T01:22:01.587Z,10.93
2022-09-11T01:27:23.824Z,11.23
2022-09-11T01:32:41.275Z,10.55
2022-09-11T01:38:24.076Z,11.25
2022-09-11T01:43:37.838Z,11.05
2022-09-11T01:48:45.283Z,11.50
2022-09-11T01:53:50.394Z,11.38
2022-09-11T01:58:58.138Z,10.77
2022-09-11T02:04:21.674Z,10.30
2022-09-11T02:09:28.398Z,11.30
2022-09-11T02:14:39.479Z,11.20
2022-09-11T02:19:41.980Z,11.15
2022-09-11T02:24:44.070Z,11.15
2022-09-11T02:29:46.600Z,12.52
2022-09-11T02:34:50.179Z,12.32
2022-09-11T02:39:59.018Z,12.20
2022-09-11T02:45:15.250Z,12.38
2022-09-11T02:50:34.253Z,11.48
2022-09-11T02:55:39.330Z,11.35
2022-09-11T03:00:42.172Z,10.25
2022-09-11T03:05:44.598Z,10.38
2022-09-11T03:10:46.690Z,10.73
2022-09-11T03:15:48.774Z,11.18
2022-09-11T03:20:51.751Z,11.98
2022-09-11T03:25:55.490Z,11.82
2022-09-11T03:30:59.176Z,10.85
2022-09-11T03:36:01.923Z,11.90
2022-09-11T03:41:04.092Z,10.90
2022-09-11T03:46:07.473Z,11.88
2022-09-11T03:51:10.886Z,11.60
2022-09-11T03:56:14.946Z,10.23
2022-09-11T04:01:22.744Z,10.70
2022-09-11T04:06:26.114Z,10.63
2022-09-11T04:11:35.497Z,11.00
2022-09-11T04:16:40.016Z,10.85
2022-09-11T04:21:42.328Z,12.93
2022-09-11T04:26:45.857Z,13.20
2022-09-11T04:31:54.183Z,11.52
2022-09-11T04:37:03.051Z,10.75
2022-09-11T04:42:06.866Z,9.93
2022-09-11T04:47:09.907Z,10.80
2022-09-11T04:52:12.133Z,11.88
2022-09-11T04:57:14.372Z,11.00
2022-09-11T05:02:16.438Z,11.63
2022-09-11T05:07:22.310Z,14.40
2022-09-11T05:12:28.495Z,14.43
2022-09-11T05:17:30.608Z,13.23
2022-09-11T05:22:32.683Z,12.93
2022-09-11T05:27:36.384Z,11.73
2022-09-11T05:32:39.484Z,12.50
2022-09-11T05:37:42.005Z,11.85
2022-09-11T05:42:45.415Z,13.40
2022-09-11T05:47:47.596Z,12.68
2022-09-11T05:52:50.904Z,12.40
2022-09-11T05:57:53.106Z,11.98
2022-09-11T06:02:56.066Z,11.20
2022-09-11T06:08:01.487Z,11.73
2022-09-11T06:13:04.235Z,11.32
2022-09-11T06:18:09.778Z,12.27
2022-09-11T06:23:12.656Z,12.73
2022-09-11T06:28:15.078Z,11.50
2022-09-11T06:33:20.204Z,11.82
2022-09-11T06:38:22.313Z,12.35
2022-09-11T06:43:24.592Z,12.02
2022-09-11T06:48:26.816Z,11.85
2022-09-11T06:53:29.082Z,12.55
2022-09-11T06:58:31.476Z,11.98
2022-09-11T07:03:33.511Z,11.73
2022-09-11T07:08:38.954Z,12.60
2022-09-11T07:13:41.755Z,13.38
2022-09-11T07:18:46.075Z,13.43
2022-09-11T07:23:57.084Z,15.63
2022-09-11T07:28:59.697Z,13.63
2022-09-11T07:34:04.768Z,13.65
2022-09-11T07:39:07.599Z,13.55
2022-09-11T07:44:18.362Z,15.02
2022-09-11T07:49:20.527Z,13.73
2022-09-11T07:54:23.000Z,13.27
2022-09-11T07:59:25.164Z,13.80
2022-09-11T08:04:28.844Z,15.23
2022-09-11T08:09:32.307Z,15.32
2022-09-11T08:14:36.876Z,15.70
2022-09-11T08:19:48.647Z,15.68
2022-09-11T08:24:51.527Z,15.73
2022-09-11T08:29:54.983Z,15.57
2022-09-11T08:34:57.267Z,14.80
2022-09-11T08:39:59.873Z,15.70
2022-09-11T08:45:03.012Z,15.02
2022-09-11T08:50:28.719Z,14.85
2022-09-11T08:55:39.445Z,14.35
2022-09-11T09:00:51.680Z,14.27
2022-09-11T09:06:10.430Z,13.73
2022-09-11T09:11:31.892Z,14.63
2022-09-11T09:16:51.798Z,12.43
2022-09-11T09:28:32.632Z,13.13
2022-09-11T09:34:13.916Z,12.32
2022-09-11T09:39:44.013Z,11.35
2022-09-11T09:44:56.606Z,11.35
2022-09-11T10:08:52.246Z,9.63
2022-09-11T10:14:50.407Z,9.60
2022-09-11T10:28:02.998Z,7.97
2022-09-11T10:39:56.493Z,6.18
2022-09-11T10:46:04.691Z,5.90
2022-09-11T10:51:46.776Z,6.82
2022-09-11T10:57:14.577Z,4.88
2022-09-11T11:02:20.789Z,5.40
2022-09-11T11:07:23.400Z,5.53
2022-09-11T11:13:05.076Z,5.70
2022-09-11T11:18:31.401Z,5.30
2022-09-11T11:23:40.821Z,4.78
2022-09-11T11:29:01.796Z,5.22
2022-09-11T11:34:11.598Z,4.10
2022-09-11T11:39:19.200Z,4.63
2022-09-11T11:45:00.296Z,4.45
2022-09-11T11:50:11.386Z,4.87
2022-09-11T11:55:24.645Z,4.35
2022-09-11T12:00:28.736Z,4.32
2022-09-11T12:05:33.926Z,4.60
2022-09-11T12:10:38.138Z,4.10
2022-09-11T12:16:00.461Z,4.50
2022-09-11T12:21:31.461Z,3.83
2022-09-11T12:26:33.575Z,3.47
2022-09-11T12:31:50.535Z,3.78
2022-09-11T12:36:57.805Z,3.00
2022-09-11T12:42:32.012Z,2.75
2022-09-11T12:47:38.628Z,2.35
2022-09-11T12:52:50.891Z,3.00
2022-09-11T12:57:53.216Z,2.70
2022-09-11T13:02:57.752Z,2.65
2022-09-11T13:08:04.907Z,2.20
2022-09-11T13:13:35.856Z,3.00
2022-09-11T13:23:42.255Z,2.47
2022-09-11T13:28:50.325Z,2.25
2022-09-11T13:33:52.965Z,2.65
2022-09-11T13:39:00.086Z,2.50
2022-09-11T13:44:03.164Z,2.08
2022-09-11T13:49:06.582Z,1.63
2022-09-11T13:54:14.915Z,1.80
2022-09-11T13:59:44.513Z,2.00
2022-09-11T14:04:47.364Z,1.75
2022-09-11T14:09:59.995Z,1.70
2022-09-11T14:15:16.555Z,2.15
2022-09-11T14:20:23.049Z,10.38
2022-09-11T14:25:25.086Z,1.77
2022-09-11T14:30:36.891Z,2.00
2022-09-11T14:35:40.041Z,2.20
2022-09-11T14:40:48.476Z,1.92
2022-09-11T14:45:51.065Z,2.55
2022-09-11T14:50:53.283Z,2.55
2022-09-11T14:55:57.555Z,2.50
2022-09-11T15:00:59.626Z,2.97
2022-09-11T15:06:01.933Z,2.50
2022-09-11T15:11:04.064Z,2.75
2022-09-11T15:16:06.736Z,2.83
2022-09-11T15:21:08.776Z,2.60
2022-09-11T15:26:11.856Z,2.38
2022-09-11T15:31:15.613Z,2.90
2022-09-11T15:36:18.488Z,2.95
2022-09-11T15:41:25.305Z,2.72
2022-09-11T15:46:27.320Z,2.53
2022-09-11T15:51:29.705Z,2.50
2022-09-11T15:56:32.988Z,2.50
2022-09-11T16:01:37.332Z,2.38
2022-09-11T16:06:42.320Z,2.30
2022-09-11T16:11:47.694Z,2.60
2022-09-11T16:16:50.657Z,3.50
2022-09-11T16:21:54.602Z,2.45
2022-09-11T16:26:57.360Z,2.78
2022-09-11T16:31:59.324Z,3.30
2022-09-11T16:37:01.370Z,3.45
2022-09-11T16:42:03.723Z,3.65
2022-09-11T16:47:06.696Z,3.40
2022-09-11T16:52:08.660Z,3.33
2022-09-11T16:57:11.737Z,3.20
2022-09-11T17:02:17.050Z,3.10
2022-09-11T17:07:19.024Z,3.30
2022-09-11T17:12:21.198Z,3.13
2022-09-11T17:17:23.197Z,3.88
2022-09-11T17:22:25.255Z,8.20
2022-09-11T17:27:29.783Z,4.55
2022-09-11T17:32:31.848Z,3.42
2022-09-11T17:37:33.894Z,2.88
2022-09-11T17:42:35.923Z,3.38
2022-09-11T17:47:38.143Z,3.10
2022-09-11T17:52:40.370Z,3.20
2022-09-11T17:57:45.250Z,3.13
2022-09-11T18:02:49.942Z,3.20
2022-09-11T18:07:52.080Z,3.08
2022-09-11T18:12:54.113Z,3.35
2022-09-11T18:17:56.605Z,3.22
2022-09-11T18:22:59.763Z,3.35
2022-09-11T18:28:03.560Z,3.53
2022-09-11T18:33:10.887Z,3.38
2022-09-11T18:38:13.067Z,3.60
2022-09-11T18:43:15.129Z,3.65
2022-09-11T18:48:17.380Z,3.58
2022-09-11T18:53:20.017Z,3.92
2022-09-11T18:58:22.603Z,3.53
2022-09-11T19:03:25.004Z,3.97
2022-09-11T19:08:27.140Z,3.90
2022-09-11T19:13:29.257Z,4.13
2022-09-11T19:18:31.969Z,4.25
2022-09-11T19:23:39.701Z,4.13
2022-09-11T19:28:43.388Z,3.65
2022-09-11T19:33:45.604Z,4.18
2022-09-11T19:38:49.591Z,4.60
2022-09-11T19:43:51.776Z,4.97
2022-09-11T19:49:00.327Z,4.22
2022-09-11T19:54:04.072Z,5.35
2022-09-11T19:59:07.929Z,4.97
2022-09-11T20:04:11.332Z,4.75
2022-09-11T20:09:30.381Z,5.30
2022-09-11T20:14:33.580Z,5.70
2022-09-11T20:19:35.596Z,5.78
2022-09-11T20:24:38.713Z,5.78
2022-09-11T20:29:43.036Z,5.40
2022-09-11T20:34:45.121Z,5.97
2022-09-11T20:39:47.418Z,5.80
2022-09-11T20:44:49.465Z,6.35
2022-09-11T20:49:53.989Z,6.30
2022-09-11T20:54:56.001Z,6.35
2022-09-11T20:59:58.108Z,6.10
2022-09-11T21:05:00.786Z,6.85
2022-09-11T21:10:02.924Z,6.55
2022-09-11T21:15:06.631Z,6.60
2022-09-11T21:20:09.018Z,6.32
2022-09-11T21:25:11.107Z,6.72
2022-09-11T21:30:13.283Z,6.78
2022-09-11T21:35:15.469Z,6.90
2022-09-11T21:40:17.549Z,6.82
2022-09-11T21:45:19.729Z,6.05
2022-09-11T21:50:21.846Z,7.40
2022-09-11T21:55:23.812Z,6.90
2022-09-11T22:00:25.784Z,7.47
2022-09-11T22:05:27.958Z,7.55
2022-09-11T22:10:29.911Z,7.60
2022-09-11T22:15:31.873Z,7.88
2022-09-11T22:20:34.337Z,7.55
2022-09-11T22:25:37.528Z,8.15
2022-09-11T22:30:43.815Z,8.18
2022-09-11T22:35:49.354Z,7.78
2022-09-11T22:40:53.435Z,8.32
2022-09-11T22:45:55.574Z,8.15
2022-09-11T22:50:57.755Z,8.20
2022-09-11T22:56:00.185Z,8.07
2022-09-11T23:01:03.758Z,8.20
2022-09-11T23:06:24.383Z,7.78
2022-09-11T23:11:28.289Z,7.25
2022-09-11T23:16:31.117Z,7.90
2022-09-11T23:21:35.440Z,7.35
2022-09-11T23:26:37.747Z,7.43
2022-09-11T23:31:40.603Z,8.63
2022-09-11T23:36:43.774Z,7.97
2022-09-11T23:41:45.740Z,7.57
2022-09-11T23:46:47.745Z,8.15
2022-09-11T23:51:49.880Z,8.18
2022-09-11T23:56:51.921Z,8.55
